sensor_id;sensor_type;location;lat;lon;timestamp;temperature;humidity
17571;DHT22;8903;52.220;20.978;2023-06-14T00:00:46;13.40;99.90
17571;DHT22;8903;52.220;20.978;2023-06-14T00:03:14;13.40;99.90
17571;DHT22;8903;52.220;20.978;2023-06-14T00:05:43;13.40;99.90
17571;DHT22;8903;52.220;20.978;2023-06-14T00:08:12;13.40;99.90
17571;DHT22;8903;52.220;20.978;2023-06-14T00:10:40;13.40;99.90
17571;DHT22;8903;52.220;20.978;2023-06-14T00:13:08;13.40;99.90
17571;DHT22;8903;52.220;20.978;2023-06-14T00:15:35;13.30;99.90
17571;DHT22;8903;52.220;20.978;2023-06-14T00:18:02;13.40;99.90
17571;DHT22;8903;52.220;20.978;2023-06-14T00:20:31;13.30;99.90
17571;DHT22;8903;52.220;20.978;2023-06-14T00:22:58;13.30;99.90
17571;DHT22;8903;52.220;20.978;2023-06-14T00:25:26;13.30;99.90
17571;DHT22;8903;52.220;20.978;2023-06-14T00:27:55;13.30;99.90
17571;DHT22;8903;52.220;20.978;2023-06-14T00:30:22;13.30;99.90
17571;DHT22;8903;52.220;20.978;2023-06-14T00:32:49;13.30;99.90
17571;DHT22;8903;52.220;20.978;2023-06-14T00:35:17;13.30;99.90
17571;DHT22;8903;52.220;20.978;2023-06-14T00:37:44;13.30;99.90
17571;DHT22;8903;52.220;20.978;2023-06-14T00:40:11;13.40;99.90
17571;DHT22;8903;52.220;20.978;2023-06-14T00:42:38;13.40;99.90
17571;DHT22;8903;52.220;20.978;2023-06-14T00:45:07;13.30;99.90
17571;DHT22;8903;52.220;20.978;2023-06-14T00:47:37;13.30;99.90
17571;DHT22;8903;52.220;20.978;2023-06-14T00:50:07;13.40;99.90
17571;DHT22;8903;52.220;20.978;2023-06-14T00:52:35;13.40;99.90
17571;DHT22;8903;52.220;20.978;2023-06-14T00:55:03;13.40;99.90
17571;DHT22;8903;52.220;20.978;2023-06-14T00:57:30;13.40;99.90
17571;DHT22;8903;52.220;20.978;2023-06-14T00:59:57;13.40;99.90
17571;DHT22;8903;52.220;20.978;2023-06-14T01:02:25;13.40;99.90
17571;DHT22;8903;52.220;20.978;2023-06-14T01:04:53;13.50;99.90
17571;DHT22;8903;52.220;20.978;2023-06-14T01:07:29;13.40;99.90
17571;DHT22;8903;52.220;20.978;2023-06-14T01:10:16;13.40;99.90
17571;DHT22;8903;52.220;20.978;2023-06-14T01:12:52;13.40;99.90
17571;DHT22;8903;52.220;20.978;2023-06-14T01:15:23;13.40;99.90
17571;DHT22;8903;52.220;20.978;2023-06-14T01:17:52;13.30;99.90
17571;DHT22;8903;52.220;20.978;2023-06-14T01:20:20;13.40;99.90
17571;DHT22;8903;52.220;20.978;2023-06-14T01:22:53;13.40;99.90
17571;DHT22;8903;52.220;20.978;2023-06-14T01:25:20;13.50;99.90
17571;DHT22;8903;52.220;20.978;2023-06-14T01:27:49;13.40;99.90
17571;DHT22;8903;52.220;20.978;2023-06-14T01:30:18;13.40;99.90
17571;DHT22;8903;52.220;20.978;2023-06-14T01:32:46;13.40;99.90
17571;DHT22;8903;52.220;20.978;2023-06-14T01:35:14;13.40;99.90
17571;DHT22;8903;52.220;20.978;2023-06-14T01:37:42;13.40;99.90
17571;DHT22;8903;52.220;20.978;2023-06-14T01:40:12;13.40;99.90
17571;DHT22;8903;52.220;20.978;2023-06-14T01:42:39;13.40;99.90
17571;DHT22;8903;52.220;20.978;2023-06-14T01:45:10;13.40;99.90
17571;DHT22;8903;52.220;20.978;2023-06-14T01:47:37;13.40;99.90
17571;DHT22;8903;52.220;20.978;2023-06-14T01:50:05;13.40;99.90
17571;DHT22;8903;52.220;20.978;2023-06-14T01:52:32;13.40;99.90
17571;DHT22;8903;52.220;20.978;2023-06-14T01:54:59;13.40;99.90
17571;DHT22;8903;52.220;20.978;2023-06-14T01:57:29;13.40;99.90
17571;DHT22;8903;52.220;20.978;2023-06-14T01:59:56;13.50;99.90
17571;DHT22;8903;52.220;20.978;2023-06-14T02:02:25;13.50;99.90
17571;DHT22;8903;52.220;20.978;2023-06-14T02:04:52;13.50;99.90
17571;DHT22;8903;52.220;20.978;2023-06-14T02:07:23;13.50;99.90
17571;DHT22;8903;52.220;20.978;2023-06-14T02:09:51;13.50;99.90
17571;DHT22;8903;52.220;20.978;2023-06-14T02:12:18;13.50;99.90
17571;DHT22;8903;52.220;20.978;2023-06-14T02:14:46;13.50;99.90
17571;DHT22;8903;52.220;20.978;2023-06-14T02:17:14;13.50;99.90
17571;DHT22;8903;52.220;20.978;2023-06-14T02:19:41;13.50;99.90
17571;DHT22;8903;52.220;20.978;2023-06-14T02:22:09;13.50;99.90
17571;DHT22;8903;52.220;20.978;2023-06-14T02:24:36;13.50;99.90
17571;DHT22;8903;52.220;20.978;2023-06-14T02:27:07;13.50;99.90
17571;DHT22;8903;52.220;20.978;2023-06-14T02:29:36;13.50;99.90
17571;DHT22;8903;52.220;20.978;2023-06-14T02:32:05;13.50;99.90
17571;DHT22;8903;52.220;20.978;2023-06-14T02:34:33;13.50;99.90
17571;DHT22;8903;52.220;20.978;2023-06-14T02:37:00;13.50;99.90
17571;DHT22;8903;52.220;20.978;2023-06-14T02:39:28;13.50;99.90
17571;DHT22;8903;52.220;20.978;2023-06-14T02:41:55;13.60;99.90
17571;DHT22;8903;52.220;20.978;2023-06-14T02:44:24;13.60;99.90
17571;DHT22;8903;52.220;20.978;2023-06-14T02:46:53;13.60;99.90
17571;DHT22;8903;52.220;20.978;2023-06-14T02:49:22;13.60;99.90
17571;DHT22;8903;52.220;20.978;2023-06-14T02:51:49;13.60;99.90
17571;DHT22;8903;52.220;20.978;2023-06-14T02:54:16;13.60;99.90
17571;DHT22;8903;52.220;20.978;2023-06-14T02:56:43;13.60;99.90
17571;DHT22;8903;52.220;20.978;2023-06-14T02:59:10;13.60;99.90
17571;DHT22;8903;52.220;20.978;2023-06-14T03:01:39;13.60;99.90
17571;DHT22;8903;52.220;20.978;2023-06-14T03:04:09;13.70;99.90
17571;DHT22;8903;52.220;20.978;2023-06-14T03:06:40;13.70;99.90
17571;DHT22;8903;52.220;20.978;2023-06-14T03:09:11;13.70;99.90
17571;DHT22;8903;52.220;20.978;2023-06-14T03:11:40;13.70;99.90
17571;DHT22;8903;52.220;20.978;2023-06-14T03:14:07;13.70;99.90
17571;DHT22;8903;52.220;20.978;2023-06-14T03:16:36;13.70;99.90
17571;DHT22;8903;52.220;20.978;2023-06-14T03:19:03;13.70;99.90
17571;DHT22;8903;52.220;20.978;2023-06-14T03:21:32;13.70;99.90
17571;DHT22;8903;52.220;20.978;2023-06-14T03:24:04;13.70;99.90
17571;DHT22;8903;52.220;20.978;2023-06-14T03:26:32;13.70;99.90
17571;DHT22;8903;52.220;20.978;2023-06-14T03:29:00;13.70;99.90
17571;DHT22;8903;52.220;20.978;2023-06-14T03:31:29;13.70;99.90
17571;DHT22;8903;52.220;20.978;2023-06-14T03:33:59;13.70;99.90
17571;DHT22;8903;52.220;20.978;2023-06-14T03:36:27;13.70;99.90
17571;DHT22;8903;52.220;20.978;2023-06-14T03:38:54;13.70;99.90
17571;DHT22;8903;52.220;20.978;2023-06-14T03:41:23;13.70;99.90
17571;DHT22;8903;52.220;20.978;2023-06-14T03:43:51;13.70;99.90
17571;DHT22;8903;52.220;20.978;2023-06-14T03:46:18;13.70;99.90
17571;DHT22;8903;52.220;20.978;2023-06-14T03:48:45;13.70;99.90
17571;DHT22;8903;52.220;20.978;2023-06-14T03:51:13;13.70;99.90
17571;DHT22;8903;52.220;20.978;2023-06-14T03:53:40;13.70;99.90
17571;DHT22;8903;52.220;20.978;2023-06-14T03:56:07;13.70;99.90
17571;DHT22;8903;52.220;20.978;2023-06-14T03:58:41;13.80;99.90
17571;DHT22;8903;52.220;20.978;2023-06-14T04:01:09;13.70;99.90
17571;DHT22;8903;52.220;20.978;2023-06-14T04:03:38;13.80;99.90
17571;DHT22;8903;52.220;20.978;2023-06-14T04:06:06;13.80;99.90
17571;DHT22;8903;52.220;20.978;2023-06-14T04:08:33;13.90;99.90
17571;DHT22;8903;52.220;20.978;2023-06-14T04:11:01;13.90;99.90
17571;DHT22;8903;52.220;20.978;2023-06-14T04:13:28;14.00;99.90
17571;DHT22;8903;52.220;20.978;2023-06-14T04:15:56;14.00;99.90
17571;DHT22;8903;52.220;20.978;2023-06-14T04:18:28;14.10;99.90
17571;DHT22;8903;52.220;20.978;2023-06-14T04:20:55;14.10;99.90
17571;DHT22;8903;52.220;20.978;2023-06-14T04:23:23;14.10;99.90
17571;DHT22;8903;52.220;20.978;2023-06-14T04:25:50;14.20;99.90
17571;DHT22;8903;52.220;20.978;2023-06-14T04:28:17;14.20;99.90
17571;DHT22;8903;52.220;20.978;2023-06-14T04:30:45;14.30;99.90
17571;DHT22;8903;52.220;20.978;2023-06-14T04:33:16;14.30;99.90
17571;DHT22;8903;52.220;20.978;2023-06-14T04:35:43;14.30;99.90
17571;DHT22;8903;52.220;20.978;2023-06-14T04:38:13;14.30;99.90
17571;DHT22;8903;52.220;20.978;2023-06-14T04:40:42;14.40;99.90
17571;DHT22;8903;52.220;20.978;2023-06-14T04:43:11;14.50;99.90
17571;DHT22;8903;52.220;20.978;2023-06-14T04:45:40;14.60;99.90
17571;DHT22;8903;52.220;20.978;2023-06-14T04:48:12;14.60;99.90
17571;DHT22;8903;52.220;20.978;2023-06-14T04:50:40;14.70;99.90
17571;DHT22;8903;52.220;20.978;2023-06-14T04:53:09;14.70;99.90
17571;DHT22;8903;52.220;20.978;2023-06-14T04:55:37;14.70;99.90
17571;DHT22;8903;52.220;20.978;2023-06-14T04:58:04;14.80;99.90
17571;DHT22;8903;52.220;20.978;2023-06-14T05:00:31;14.80;99.90
17571;DHT22;8903;52.220;20.978;2023-06-14T05:02:58;14.80;99.90
17571;DHT22;8903;52.220;20.978;2023-06-14T05:05:27;14.90;99.90
17571;DHT22;8903;52.220;20.978;2023-06-14T05:07:55;14.90;99.90
17571;DHT22;8903;52.220;20.978;2023-06-14T05:10:22;14.80;99.90
17571;DHT22;8903;52.220;20.978;2023-06-14T05:12:49;14.90;99.90
17571;DHT22;8903;52.220;20.978;2023-06-14T05:15:18;14.90;99.90
17571;DHT22;8903;52.220;20.978;2023-06-14T05:17:46;14.90;99.90
17571;DHT22;8903;52.220;20.978;2023-06-14T05:20:18;14.90;99.90
17571;DHT22;8903;52.220;20.978;2023-06-14T05:22:45;14.90;99.90
17571;DHT22;8903;52.220;20.978;2023-06-14T05:25:15;14.90;99.90
17571;DHT22;8903;52.220;20.978;2023-06-14T05:27:42;14.90;99.90
17571;DHT22;8903;52.220;20.978;2023-06-14T05:30:10;14.90;99.90
17571;DHT22;8903;52.220;20.978;2023-06-14T05:32:37;14.90;99.90
17571;DHT22;8903;52.220;20.978;2023-06-14T05:35:05;14.90;99.90
17571;DHT22;8903;52.220;20.978;2023-06-14T05:37:32;14.90;99.90
17571;DHT22;8903;52.220;20.978;2023-06-14T05:39:59;14.90;99.90
17571;DHT22;8903;52.220;20.978;2023-06-14T05:42:28;14.90;99.90
17571;DHT22;8903;52.220;20.978;2023-06-14T05:44:55;15.00;99.90
17571;DHT22;8903;52.220;20.978;2023-06-14T05:47:22;14.90;99.90
17571;DHT22;8903;52.220;20.978;2023-06-14T05:49:49;15.00;99.90
17571;DHT22;8903;52.220;20.978;2023-06-14T05:52:16;15.00;99.90
17571;DHT22;8903;52.220;20.978;2023-06-14T05:54:42;15.00;99.90
17571;DHT22;8903;52.220;20.978;2023-06-14T05:57:10;15.00;99.90
17571;DHT22;8903;52.220;20.978;2023-06-14T05:59:38;15.10;99.90
17571;DHT22;8903;52.220;20.978;2023-06-14T06:02:05;15.10;99.90
17571;DHT22;8903;52.220;20.978;2023-06-14T06:04:32;15.20;99.90
17571;DHT22;8903;52.220;20.978;2023-06-14T06:06:59;15.20;99.90
17571;DHT22;8903;52.220;20.978;2023-06-14T06:09:26;15.30;99.90
17571;DHT22;8903;52.220;20.978;2023-06-14T06:11:53;15.30;99.90
17571;DHT22;8903;52.220;20.978;2023-06-14T06:14:20;15.50;99.90
17571;DHT22;8903;52.220;20.978;2023-06-14T06:16:49;15.60;99.90
17571;DHT22;8903;52.220;20.978;2023-06-14T06:19:18;15.60;99.90
17571;DHT22;8903;52.220;20.978;2023-06-14T06:21:45;15.70;99.90
17571;DHT22;8903;52.220;20.978;2023-06-14T06:24:12;15.90;99.90
17571;DHT22;8903;52.220;20.978;2023-06-14T06:26:39;16.00;99.90
17571;DHT22;8903;52.220;20.978;2023-06-14T06:29:06;16.00;99.90
17571;DHT22;8903;52.220;20.978;2023-06-14T06:31:33;16.10;99.90
17571;DHT22;8903;52.220;20.978;2023-06-14T06:34:01;16.10;99.90
17571;DHT22;8903;52.220;20.978;2023-06-14T06:36:28;16.10;99.90
17571;DHT22;8903;52.220;20.978;2023-06-14T06:38:55;16.10;99.90
17571;DHT22;8903;52.220;20.978;2023-06-14T06:41:22;16.20;99.90
17571;DHT22;8903;52.220;20.978;2023-06-14T06:43:49;16.20;99.90
17571;DHT22;8903;52.220;20.978;2023-06-14T06:46:16;16.10;99.90
17571;DHT22;8903;52.220;20.978;2023-06-14T06:48:44;16.10;99.90
17571;DHT22;8903;52.220;20.978;2023-06-14T06:51:13;16.20;99.90
17571;DHT22;8903;52.220;20.978;2023-06-14T06:53:42;16.30;99.90
17571;DHT22;8903;52.220;20.978;2023-06-14T06:56:09;16.40;99.90
17571;DHT22;8903;52.220;20.978;2023-06-14T06:58:36;16.40;99.90
17571;DHT22;8903;52.220;20.978;2023-06-14T07:01:03;16.40;99.90
17571;DHT22;8903;52.220;20.978;2023-06-14T07:03:30;16.40;99.90
17571;DHT22;8903;52.220;20.978;2023-06-14T07:05:57;16.30;99.90
17571;DHT22;8903;52.220;20.978;2023-06-14T07:08:26;16.20;99.90
17571;DHT22;8903;52.220;20.978;2023-06-14T07:10:54;16.20;99.90
17571;DHT22;8903;52.220;20.978;2023-06-14T07:13:21;16.20;99.90
17571;DHT22;8903;52.220;20.978;2023-06-14T07:15:48;16.30;99.90
17571;DHT22;8903;52.220;20.978;2023-06-14T07:18:15;16.30;99.90
17571;DHT22;8903;52.220;20.978;2023-06-14T07:20:42;16.30;99.90
17571;DHT22;8903;52.220;20.978;2023-06-14T07:23:09;16.40;99.90
17571;DHT22;8903;52.220;20.978;2023-06-14T07:25:37;16.40;99.90
17571;DHT22;8903;52.220;20.978;2023-06-14T07:28:04;16.40;99.90
17571;DHT22;8903;52.220;20.978;2023-06-14T07:30:32;16.50;99.90
17571;DHT22;8903;52.220;20.978;2023-06-14T07:32:59;16.50;99.90
17571;DHT22;8903;52.220;20.978;2023-06-14T07:35:26;16.60;99.90
17571;DHT22;8903;52.220;20.978;2023-06-14T07:37:53;16.70;99.90
17571;DHT22;8903;52.220;20.978;2023-06-14T07:40:20;16.80;99.90
17571;DHT22;8903;52.220;20.978;2023-06-14T07:42:48;16.90;99.90
17571;DHT22;8903;52.220;20.978;2023-06-14T07:45:16;17.10;99.90
17571;DHT22;8903;52.220;20.978;2023-06-14T07:47:43;17.20;99.90
17571;DHT22;8903;52.220;20.978;2023-06-14T07:50:10;17.40;99.90
17571;DHT22;8903;52.220;20.978;2023-06-14T07:52:38;17.40;99.90
17571;DHT22;8903;52.220;20.978;2023-06-14T07:55:06;17.40;99.90
17571;DHT22;8903;52.220;20.978;2023-06-14T07:57:33;17.50;99.90
17571;DHT22;8903;52.220;20.978;2023-06-14T08:00:02;17.60;99.90
17571;DHT22;8903;52.220;20.978;2023-06-14T08:02:37;17.70;99.90
17571;DHT22;8903;52.220;20.978;2023-06-14T08:05:05;17.80;99.90
17571;DHT22;8903;52.220;20.978;2023-06-14T08:07:32;17.90;99.90
17571;DHT22;8903;52.220;20.978;2023-06-14T08:09:59;18.00;99.90
17571;DHT22;8903;52.220;20.978;2023-06-14T08:12:26;18.10;99.90
17571;DHT22;8903;52.220;20.978;2023-06-14T08:14:53;18.10;99.90
17571;DHT22;8903;52.220;20.978;2023-06-14T08:17:21;18.20;99.90
17571;DHT22;8903;52.220;20.978;2023-06-14T08:19:48;18.30;99.90
17571;DHT22;8903;52.220;20.978;2023-06-14T08:22:16;18.30;99.90
17571;DHT22;8903;52.220;20.978;2023-06-14T08:24:43;18.20;99.90
17571;DHT22;8903;52.220;20.978;2023-06-14T08:27:11;18.20;99.90
17571;DHT22;8903;52.220;20.978;2023-06-14T08:29:39;18.20;99.90
17571;DHT22;8903;52.220;20.978;2023-06-14T08:32:07;18.30;99.90
17571;DHT22;8903;52.220;20.978;2023-06-14T08:34:35;18.30;99.90
17571;DHT22;8903;52.220;20.978;2023-06-14T08:37:02;18.50;99.90
17571;DHT22;8903;52.220;20.978;2023-06-14T08:39:30;18.50;99.90
17571;DHT22;8903;52.220;20.978;2023-06-14T08:41:58;18.60;99.90
17571;DHT22;8903;52.220;20.978;2023-06-14T08:44:27;18.70;99.90
17571;DHT22;8903;52.220;20.978;2023-06-14T08:46:56;18.70;99.90
17571;DHT22;8903;52.220;20.978;2023-06-14T08:49:25;18.70;99.90
17571;DHT22;8903;52.220;20.978;2023-06-14T08:51:57;18.70;99.90
17571;DHT22;8903;52.220;20.978;2023-06-14T08:54:26;18.70;99.90
17571;DHT22;8903;52.220;20.978;2023-06-14T08:56:55;18.50;99.90
17571;DHT22;8903;52.220;20.978;2023-06-14T08:59:25;18.60;99.90
17571;DHT22;8903;52.220;20.978;2023-06-14T09:01:53;18.60;99.90
17571;DHT22;8903;52.220;20.978;2023-06-14T09:04:20;18.70;99.90
17571;DHT22;8903;52.220;20.978;2023-06-14T09:06:48;18.80;99.90
17571;DHT22;8903;52.220;20.978;2023-06-14T09:09:20;18.90;99.90
17571;DHT22;8903;52.220;20.978;2023-06-14T09:11:49;19.00;99.90
17571;DHT22;8903;52.220;20.978;2023-06-14T09:14:17;19.10;99.90
17571;DHT22;8903;52.220;20.978;2023-06-14T09:16:44;19.20;99.90
17571;DHT22;8903;52.220;20.978;2023-06-14T09:19:14;19.20;99.90
17571;DHT22;8903;52.220;20.978;2023-06-14T09:21:47;19.20;99.90
17571;DHT22;8903;52.220;20.978;2023-06-14T09:24:15;19.20;99.90
17571;DHT22;8903;52.220;20.978;2023-06-14T09:26:46;19.30;99.90
17571;DHT22;8903;52.220;20.978;2023-06-14T09:29:13;19.40;99.90
17571;DHT22;8903;52.220;20.978;2023-06-14T09:31:40;19.40;99.90
17571;DHT22;8903;52.220;20.978;2023-06-14T09:34:07;19.40;99.90
17571;DHT22;8903;52.220;20.978;2023-06-14T09:36:35;19.40;99.90
17571;DHT22;8903;52.220;20.978;2023-06-14T09:39:03;19.30;99.90
17571;DHT22;8903;52.220;20.978;2023-06-14T09:41:32;19.20;99.90
17571;DHT22;8903;52.220;20.978;2023-06-14T09:44:02;19.10;99.90
17571;DHT22;8903;52.220;20.978;2023-06-14T09:46:30;19.00;99.90
17571;DHT22;8903;52.220;20.978;2023-06-14T09:48:57;18.90;99.90
17571;DHT22;8903;52.220;20.978;2023-06-14T09:51:25;18.80;99.90
17571;DHT22;8903;52.220;20.978;2023-06-14T09:53:57;18.80;99.90
17571;DHT22;8903;52.220;20.978;2023-06-14T09:56:29;18.80;99.90
17571;DHT22;8903;52.220;20.978;2023-06-14T09:58:57;18.80;99.90
17571;DHT22;8903;52.220;20.978;2023-06-14T10:01:27;18.90;99.90
17571;DHT22;8903;52.220;20.978;2023-06-14T10:03:57;19.00;99.90
17571;DHT22;8903;52.220;20.978;2023-06-14T10:06:29;19.10;99.90
17571;DHT22;8903;52.220;20.978;2023-06-14T10:08:57;19.20;99.90
17571;DHT22;8903;52.220;20.978;2023-06-14T10:11:26;19.40;99.90
17571;DHT22;8903;52.220;20.978;2023-06-14T10:13:53;19.60;99.90
17571;DHT22;8903;52.220;20.978;2023-06-14T10:16:24;19.90;99.90
17571;DHT22;8903;52.220;20.978;2023-06-14T10:19:03;20.10;99.90
17571;DHT22;8903;52.220;20.978;2023-06-14T10:21:40;20.10;99.90
17571;DHT22;8903;52.220;20.978;2023-06-14T10:24:10;20.20;99.90
17571;DHT22;8903;52.220;20.978;2023-06-14T10:26:51;20.20;99.90
17571;DHT22;8903;52.220;20.978;2023-06-14T10:29:18;20.30;99.90
17571;DHT22;8903;52.220;20.978;2023-06-14T10:31:46;20.20;99.90
17571;DHT22;8903;52.220;20.978;2023-06-14T10:34:23;20.10;99.90
17571;DHT22;8903;52.220;20.978;2023-06-14T10:37:01;20.10;99.90
17571;DHT22;8903;52.220;20.978;2023-06-14T10:39:29;20.30;99.90
17571;DHT22;8903;52.220;20.978;2023-06-14T10:41:57;20.60;99.90
17571;DHT22;8903;52.220;20.978;2023-06-14T10:44:38;20.70;99.90
17571;DHT22;8903;52.220;20.978;2023-06-14T10:47:07;20.60;99.50
17571;DHT22;8903;52.220;20.978;2023-06-14T10:49:41;20.60;99.80
17571;DHT22;8903;52.220;20.978;2023-06-14T10:52:10;20.30;99.70
17571;DHT22;8903;52.220;20.978;2023-06-14T10:55:07;20.20;99.90
17571;DHT22;8903;52.220;20.978;2023-06-14T10:57:39;20.00;99.90
17571;DHT22;8903;52.220;20.978;2023-06-14T11:00:07;20.00;99.90
17571;DHT22;8903;52.220;20.978;2023-06-14T11:03:35;20.00;99.90
17571;DHT22;8903;52.220;20.978;2023-06-14T11:06:21;20.10;99.90
17571;DHT22;8903;52.220;20.978;2023-06-14T11:09:09;20.10;99.90
17571;DHT22;8903;52.220;20.978;2023-06-14T11:11:42;20.20;99.90
17571;DHT22;8903;52.220;20.978;2023-06-14T11:14:10;20.40;99.80
17571;DHT22;8903;52.220;20.978;2023-06-14T11:16:37;20.70;99.70
17571;DHT22;8903;52.220;20.978;2023-06-14T11:19:05;20.70;99.70
17571;DHT22;8903;52.220;20.978;2023-06-14T11:21:33;20.60;99.70
17571;DHT22;8903;52.220;20.978;2023-06-14T11:24:01;20.30;99.80
17571;DHT22;8903;52.220;20.978;2023-06-14T11:26:28;20.30;99.90
17571;DHT22;8903;52.220;20.978;2023-06-14T11:28:56;20.30;99.90
17571;DHT22;8903;52.220;20.978;2023-06-14T11:31:24;20.50;99.90
17571;DHT22;8903;52.220;20.978;2023-06-14T11:33:51;20.50;99.20
17571;DHT22;8903;52.220;20.978;2023-06-14T11:36:19;20.30;99.60
17571;DHT22;8903;52.220;20.978;2023-06-14T11:38:48;20.30;99.90
17571;DHT22;8903;52.220;20.978;2023-06-14T11:41:15;20.50;99.90
17571;DHT22;8903;52.220;20.978;2023-06-14T11:43:42;20.80;99.90
17571;DHT22;8903;52.220;20.978;2023-06-14T11:46:12;21.20;98.40
17571;DHT22;8903;52.220;20.978;2023-06-14T11:48:41;21.30;97.20
17571;DHT22;8903;52.220;20.978;2023-06-14T11:51:09;21.30;97.80
17571;DHT22;8903;52.220;20.978;2023-06-14T11:53:37;21.50;97.10
17571;DHT22;8903;52.220;20.978;2023-06-14T11:56:05;21.50;96.20
17571;DHT22;8903;52.220;20.978;2023-06-14T11:58:33;21.50;96.80
17571;DHT22;8903;52.220;20.978;2023-06-14T12:01:00;21.60;96.50
17571;DHT22;8903;52.220;20.978;2023-06-14T12:03:28;21.70;96.30
17571;DHT22;8903;52.220;20.978;2023-06-14T12:06:05;21.80;96.80
17571;DHT22;8903;52.220;20.978;2023-06-14T12:08:34;22.20;96.20
17571;DHT22;8903;52.220;20.978;2023-06-14T12:11:06;22.50;96.70
17571;DHT22;8903;52.220;20.978;2023-06-14T12:13:37;22.50;95.90
17571;DHT22;8903;52.220;20.978;2023-06-14T12:16:04;22.20;94.90
17571;DHT22;8903;52.220;20.978;2023-06-14T12:18:32;22.00;95.70
17571;DHT22;8903;52.220;20.978;2023-06-14T12:21:00;22.00;95.80
17571;DHT22;8903;52.220;20.978;2023-06-14T12:23:39;22.10;95.70
17571;DHT22;8903;52.220;20.978;2023-06-14T12:26:07;22.30;94.90
17571;DHT22;8903;52.220;20.978;2023-06-14T12:28:34;21.80;95.00
17571;DHT22;8903;52.220;20.978;2023-06-14T12:31:01;21.80;95.10
17571;DHT22;8903;52.220;20.978;2023-06-14T12:33:29;21.60;95.60
17571;DHT22;8903;52.220;20.978;2023-06-14T12:35:55;21.70;95.70
17571;DHT22;8903;52.220;20.978;2023-06-14T12:38:23;22.00;95.80
17571;DHT22;8903;52.220;20.978;2023-06-14T12:40:50;22.20;95.10
17571;DHT22;8903;52.220;20.978;2023-06-14T12:43:19;22.40;95.70
17571;DHT22;8903;52.220;20.978;2023-06-14T12:45:46;22.40;95.20
17571;DHT22;8903;52.220;20.978;2023-06-14T12:48:14;22.30;95.10
17571;DHT22;8903;52.220;20.978;2023-06-14T12:50:41;22.50;94.60
17571;DHT22;8903;52.220;20.978;2023-06-14T12:53:11;23.00;94.70
17571;DHT22;8903;52.220;20.978;2023-06-14T12:55:38;23.50;93.80
17571;DHT22;8903;52.220;20.978;2023-06-14T12:58:05;23.50;94.00
17571;DHT22;8903;52.220;20.978;2023-06-14T13:00:34;23.80;93.10
17571;DHT22;8903;52.220;20.978;2023-06-14T13:03:01;23.80;92.50
17571;DHT22;8903;52.220;20.978;2023-06-14T13:05:28;23.20;92.70
17571;DHT22;8903;52.220;20.978;2023-06-14T13:07:57;22.80;93.40
17571;DHT22;8903;52.220;20.978;2023-06-14T13:10:24;22.50;93.80
17571;DHT22;8903;52.220;20.978;2023-06-14T13:12:52;22.70;93.60
17571;DHT22;8903;52.220;20.978;2023-06-14T13:15:18;22.60;93.80
17571;DHT22;8903;52.220;20.978;2023-06-14T13:17:47;22.50;93.60
17571;DHT22;8903;52.220;20.978;2023-06-14T13:20:14;22.40;93.40
17571;DHT22;8903;52.220;20.978;2023-06-14T13:22:42;22.50;93.60
17571;DHT22;8903;52.220;20.978;2023-06-14T13:25:10;22.70;93.50
17571;DHT22;8903;52.220;20.978;2023-06-14T13:27:36;22.80;93.00
17571;DHT22;8903;52.220;20.978;2023-06-14T13:30:05;23.20;92.90
17571;DHT22;8903;52.220;20.978;2023-06-14T13:32:32;23.60;92.30
17571;DHT22;8903;52.220;20.978;2023-06-14T13:35:00;23.90;91.90
17571;DHT22;8903;52.220;20.978;2023-06-14T13:37:27;24.30;91.70
17571;DHT22;8903;52.220;20.978;2023-06-14T13:39:54;24.40;91.30
17571;DHT22;8903;52.220;20.978;2023-06-14T13:42:21;24.40;91.80
17571;DHT22;8903;52.220;20.978;2023-06-14T13:44:48;24.30;91.70
17571;DHT22;8903;52.220;20.978;2023-06-14T13:47:17;24.50;91.80
17571;DHT22;8903;52.220;20.978;2023-06-14T13:49:44;24.60;91.60
17571;DHT22;8903;52.220;20.978;2023-06-14T13:52:12;24.80;91.80
17571;DHT22;8903;52.220;20.978;2023-06-14T13:54:39;24.80;91.50
17571;DHT22;8903;52.220;20.978;2023-06-14T13:57:07;24.50;91.80
17571;DHT22;8903;52.220;20.978;2023-06-14T13:59:34;24.70;91.90
17571;DHT22;8903;52.220;20.978;2023-06-14T14:02:01;24.80;92.20
17571;DHT22;8903;52.220;20.978;2023-06-14T14:04:29;25.30;91.60
17571;DHT22;8903;52.220;20.978;2023-06-14T14:06:56;25.70;90.60
17571;DHT22;8903;52.220;20.978;2023-06-14T14:09:24;25.10;91.00
17571;DHT22;8903;52.220;20.978;2023-06-14T14:11:51;24.50;91.50
17571;DHT22;8903;52.220;20.978;2023-06-14T14:14:18;24.10;92.10
17571;DHT22;8903;52.220;20.978;2023-06-14T14:16:46;23.70;92.80
17571;DHT22;8903;52.220;20.978;2023-06-14T14:19:13;23.50;92.80
17571;DHT22;8903;52.220;20.978;2023-06-14T14:21:39;22.90;93.10
17571;DHT22;8903;52.220;20.978;2023-06-14T14:24:07;22.50;93.90
17571;DHT22;8903;52.220;20.978;2023-06-14T14:26:35;22.20;94.10
17571;DHT22;8903;52.220;20.978;2023-06-14T14:29:02;22.20;94.40
17571;DHT22;8903;52.220;20.978;2023-06-14T14:31:29;22.00;94.70
17571;DHT22;8903;52.220;20.978;2023-06-14T14:33:56;22.00;94.70
17571;DHT22;8903;52.220;20.978;2023-06-14T14:36:23;21.80;94.40
17571;DHT22;8903;52.220;20.978;2023-06-14T14:38:50;21.60;94.80
17571;DHT22;8903;52.220;20.978;2023-06-14T14:41:18;21.50;95.20
17571;DHT22;8903;52.220;20.978;2023-06-14T14:43:46;21.50;95.40
17571;DHT22;8903;52.220;20.978;2023-06-14T14:46:13;21.50;95.50
17571;DHT22;8903;52.220;20.978;2023-06-14T14:48:42;21.40;95.70
17571;DHT22;8903;52.220;20.978;2023-06-14T14:51:09;21.30;95.90
17571;DHT22;8903;52.220;20.978;2023-06-14T14:53:36;21.20;96.20
17571;DHT22;8903;52.220;20.978;2023-06-14T14:56:03;21.30;96.50
17571;DHT22;8903;52.220;20.978;2023-06-14T14:58:30;21.20;96.20
17571;DHT22;8903;52.220;20.978;2023-06-14T15:00:58;21.30;96.50
17571;DHT22;8903;52.220;20.978;2023-06-14T15:03:25;21.40;95.90
17571;DHT22;8903;52.220;20.978;2023-06-14T15:05:52;21.40;95.80
17571;DHT22;8903;52.220;20.978;2023-06-14T15:08:20;21.40;96.10
17571;DHT22;8903;52.220;20.978;2023-06-14T15:10:47;21.50;96.20
17571;DHT22;8903;52.220;20.978;2023-06-14T15:13:14;21.60;96.10
17571;DHT22;8903;52.220;20.978;2023-06-14T15:15:41;21.30;96.40
17571;DHT22;8903;52.220;20.978;2023-06-14T15:18:09;21.30;96.60
17571;DHT22;8903;52.220;20.978;2023-06-14T15:20:36;21.20;96.50
17571;DHT22;8903;52.220;20.978;2023-06-14T15:23:03;21.00;96.50
17571;DHT22;8903;52.220;20.978;2023-06-14T15:25:30;20.70;96.80
17571;DHT22;8903;52.220;20.978;2023-06-14T15:27:58;20.80;96.80
17571;DHT22;8903;52.220;20.978;2023-06-14T15:30:25;21.10;96.40
17571;DHT22;8903;52.220;20.978;2023-06-14T15:32:52;21.40;95.70
17571;DHT22;8903;52.220;20.978;2023-06-14T15:35:20;21.80;95.50
17571;DHT22;8903;52.220;20.978;2023-06-14T15:37:47;22.00;94.90